Time;durP1;ratioP1;P1;durP2;ratioP2;P2;SDS_P1;SDS_P2;PMS_P1;PMS_P2;Temp;Humidity;BMP_temperature;BMP_pressure;BME280_temperature;BME280_humidity;BME280_pressure;Samples;Min_cycle;Max_cycle;Signal;HPM_P1;HPM_P2
2023/12/12 00:00:30;;;;;;;8.57;2.28;;;8.00;99.90;;;;;;5022284;28;20533;-37
2023/12/12 00:02:57;;;;;;;11.48;2.70;;;8.10;99.90;;;;;;5024093;28;20237;-37
2023/12/12 00:05:23;;;;;;;8.32;1.98;;;8.10;99.90;;;;;;5022961;28;20184;-38
2023/12/12 00:07:49;;;;;;;6.38;2.30;;;8.10;99.90;;;;;;5023825;28;20210;-40
2023/12/12 00:10:15;;;;;;;11.85;2.50;;;8.00;99.90;;;;;;5022814;28;20183;-36
2023/12/12 00:12:41;;;;;;;11.38;2.50;;;8.00;99.90;;;;;;5024154;28;20279;-40
2023/12/12 00:15:07;;;;;;;9.90;2.25;;;8.00;99.90;;;;;;5022372;28;20229;-37
2023/12/12 00:17:33;;;;;;;12.00;2.40;;;8.00;99.90;;;;;;5023648;28;20184;-37
2023/12/12 00:19:59;;;;;;;7.80;2.13;;;8.00;99.90;;;;;;5055235;28;20668;-40
2023/12/12 00:22:25;;;;;;;8.88;2.05;;;8.00;99.90;;;;;;5022666;28;20275;-41
2023/12/12 00:24:50;;;;;;;7.78;2.20;;;8.00;99.90;;;;;;5023776;28;20855;-38
2023/12/12 00:27:16;;;;;;;9.88;2.30;;;7.90;99.90;;;;;;5023624;28;20208;-39
2023/12/12 00:29:44;;;;;;;8.25;2.30;;;7.90;99.90;;;;;;5023305;28;20184;-38
2023/12/12 00:32:10;;;;;;;10.88;2.40;;;7.90;99.90;;;;;;5023570;28;20226;-40
2023/12/12 00:34:37;;;;;;;6.85;2.40;;;7.90;99.90;;;;;;5022086;28;20297;-38
2023/12/12 00:37:04;;;;;;;8.68;2.28;;;7.80;99.90;;;;;;5023308;28;20184;-38
2023/12/12 00:39:30;;;;;;;7.20;2.40;;;7.80;99.90;;;;;;5023601;28;20254;-41
2023/12/12 00:41:56;;;;;;;11.60;2.45;;;7.70;99.90;;;;;;5022029;28;20188;-41
2023/12/12 00:44:22;;;;;;;6.85;2.58;;;7.60;99.90;;;;;;5021456;28;20206;-39
2023/12/12 00:46:48;;;;;;;9.20;2.70;;;7.50;99.90;;;;;;5022855;28;20192;-41
2023/12/12 00:49:14;;;;;;;16.05;2.78;;;7.50;99.90;;;;;;5022549;28;20184;-39
2023/12/12 00:51:40;;;;;;;8.68;2.55;;;7.40;99.90;;;;;;5023674;28;20274;-39
2023/12/12 00:54:06;;;;;;;11.60;2.70;;;7.30;99.90;;;;;;5021795;28;20214;-44
2023/12/12 00:56:32;;;;;;;7.45;2.33;;;7.20;99.90;;;;;;5023195;28;20560;-36
2023/12/12 00:58:58;;;;;;;12.20;3.45;;;7.20;99.90;;;;;;5021197;28;20198;-40
2023/12/12 01:01:23;;;;;;;6.25;2.78;;;7.10;99.90;;;;;;5023213;28;20192;-40
2023/12/12 01:03:50;;;;;;;10.88;2.80;;;7.10;99.90;;;;;;5023451;28;20196;-36
2023/12/12 01:06:23;;;;;;;10.40;2.92;;;7.00;99.90;;;;;;5023086;28;20245;-37
2023/12/12 01:08:50;;;;;;;8.57;2.53;;;7.00;99.90;;;;;;5052886;28;20571;-34
2023/12/12 01:11:19;;;;;;;8.98;2.75;;;6.90;99.90;;;;;;5022329;28;20599;-35
2023/12/12 01:13:46;;;;;;;13.45;3.05;;;6.90;99.90;;;;;;5020492;28;20773;-40
2023/12/12 01:16:12;;;;;;;10.23;3.10;;;6.80;99.90;;;;;;5022964;28;20184;-37
2023/12/12 01:18:38;;;;;;;14.38;2.70;;;6.80;99.90;;;;;;5022823;28;20204;-37
2023/12/12 01:21:05;;;;;;;9.50;2.60;;;6.80;99.90;;;;;;5023289;28;20220;-39
2023/12/12 01:23:52;;;;;;;7.40;2.70;;;6.70;99.90;;;;;;5022017;28;20253;-38
2023/12/12 01:26:20;;;;;;;12.63;2.60;;;6.70;99.90;;;;;;5022345;28;20183;-38
2023/12/12 01:28:47;;;;;;;12.15;3.08;;;6.60;99.90;;;;;;5021026;28;20205;-37
2023/12/12 01:31:17;;;;;;;9.80;2.78;;;6.60;99.90;;;;;;5022507;28;20195;-38
2023/12/12 01:33:44;;;;;;;12.07;2.72;;;6.60;99.90;;;;;;5021617;28;20216;-41
2023/12/12 01:36:10;;;;;;;12.55;3.20;;;6.50;99.90;;;;;;5021884;28;20184;-40
2023/12/12 01:38:36;;;;;;;7.80;3.05;;;6.50;99.90;;;;;;5021769;28;20198;-37
2023/12/12 01:41:03;;;;;;;13.20;2.85;;;6.40;99.90;;;;;;5021718;28;20186;-39
2023/12/12 01:43:31;;;;;;;9.93;3.00;;;6.40;99.90;;;;;;5021684;28;20199;-38
2023/12/12 01:46:00;;;;;;;9.68;3.13;;;6.40;99.90;;;;;;5020401;28;20246;-38
2023/12/12 01:48:28;;;;;;;13.38;3.40;;;6.30;99.90;;;;;;5022134;28;20219;-36
2023/12/12 01:50:54;;;;;;;10.77;3.13;;;6.30;99.90;;;;;;5021527;28;20278;-36
2023/12/12 01:53:24;;;;;;;8.40;3.30;;;6.20;99.90;;;;;;5037201;28;20188;-42
2023/12/12 01:55:52;;;;;;;10.10;3.40;;;6.20;99.90;;;;;;5021934;28;20203;-39
2023/12/12 01:58:20;;;;;;;7.63;3.20;;;6.20;99.90;;;;;;5021976;28;20196;-39
2023/12/12 02:00:47;;;;;;;12.48;3.50;;;6.10;99.90;;;;;;5021552;28;20276;-40
2023/12/12 02:03:14;;;;;;;9.70;3.33;;;6.10;99.90;;;;;;5022099;28;20198;-37
2023/12/12 02:05:42;;;;;;;13.48;3.53;;;6.10;99.90;;;;;;5022031;28;20186;-38
2023/12/12 02:08:08;;;;;;;11.65;3.58;;;6.00;99.90;;;;;;5021472;28;20207;-35
2023/12/12 02:10:34;;;;;;;9.93;3.90;;;6.00;99.90;;;;;;5021589;28;20236;-43
2023/12/12 02:13:00;;;;;;;10.57;3.63;;;6.00;99.90;;;;;;5006243;28;20282;-37
2023/12/12 02:15:26;;;;;;;18.20;4.60;;;5.90;99.90;;;;;;5021449;28;20409;-39
2023/12/12 02:17:52;;;;;;;8.50;3.85;;;5.90;99.90;;;;;;5020787;28;20267;-43
2023/12/12 02:20:18;;;;;;;9.90;3.58;;;5.90;99.90;;;;;;5021236;28;20218;-43
2023/12/12 02:22:44;;;;;;;10.70;4.07;;;5.80;99.90;;;;;;5022186;28;20192;-44
2023/12/12 02:25:10;;;;;;;12.63;4.03;;;5.80;99.90;;;;;;5021094;28;20200;-37
2023/12/12 02:27:37;;;;;;;8.85;4.25;;;5.80;99.90;;;;;;5019976;28;20191;-36
2023/12/12 02:30:08;;;;;;;7.03;3.58;;;5.70;99.90;;;;;;5021457;28;20188;-38
2023/12/12 02:32:34;;;;;;;14.23;4.15;;;5.70;99.90;;;;;;5021577;28;20192;-40
2023/12/12 02:35:01;;;;;;;9.27;4.20;;;5.70;99.90;;;;;;5021889;28;20207;-38
2023/12/12 02:37:26;;;;;;;15.60;4.32;;;5.70;99.90;;;;;;5019730;28;20188;-38
2023/12/12 02:39:52;;;;;;;9.60;3.75;;;5.70;99.90;;;;;;5020108;28;20195;-37
2023/12/12 02:42:18;;;;;;;8.48;3.50;;;5.60;99.90;;;;;;5021796;28;20836;-41
2023/12/12 02:44:44;;;;;;;10.57;3.42;;;5.60;99.90;;;;;;5022947;28;20191;-37
2023/12/12 02:47:10;;;;;;;9.98;3.80;;;5.60;99.90;;;;;;5024997;28;20191;-38
2023/12/12 02:49:36;;;;;;;10.68;3.70;;;5.60;99.90;;;;;;5022583;28;20196;-38
2023/12/12 02:52:02;;;;;;;13.98;3.63;;;5.60;99.90;;;;;;5023353;28;20286;-37
2023/12/12 02:54:28;;;;;;;11.77;3.75;;;5.60;99.90;;;;;;5025076;28;20226;-40
2023/12/12 02:56:54;;;;;;;9.98;3.67;;;5.50;99.90;;;;;;5025973;28;20183;-39
2023/12/12 02:59:20;;;;;;;11.25;3.72;;;5.50;99.90;;;;;;5023411;28;20184;-38
2023/12/12 03:01:49;;;;;;;10.43;3.70;;;5.60;99.90;;;;;;5025065;28;20180;-34
2023/12/12 03:04:15;;;;;;;11.27;3.78;;;5.60;99.90;;;;;;5025032;28;20199;-39
2023/12/12 03:06:40;;;;;;;10.68;3.50;;;5.60;99.90;;;;;;5024424;28;20188;-39
2023/12/12 03:09:06;;;;;;;13.48;3.17;;;5.60;99.90;;;;;;5023652;28;20557;-41
2023/12/12 03:11:34;;;;;;;8.80;3.50;;;5.60;99.90;;;;;;5023170;28;20224;-38
2023/12/12 03:14:00;;;;;;;7.35;3.00;;;5.60;99.90;;;;;;5025184;28;20648;-35
2023/12/12 03:16:26;;;;;;;9.43;3.47;;;5.60;99.90;;;;;;5025156;28;20280;-41
2023/12/12 03:18:53;;;;;;;6.75;3.40;;;5.60;99.90;;;;;;5024622;28;20262;-38
2023/12/12 03:21:18;;;;;;;10.98;3.40;;;5.70;99.90;;;;;;5025060;28;20184;-35
2023/12/12 03:23:46;;;;;;;12.45;3.47;;;5.70;99.90;;;;;;5056264;28;20218;-37
2023/12/12 03:26:12;;;;;;;11.73;3.28;;;5.70;99.90;;;;;;5023822;28;20192;-41
2023/12/12 03:28:38;;;;;;;8.25;3.35;;;5.80;99.90;;;;;;5023308;28;20191;-36
2023/12/12 03:31:04;;;;;;;10.68;3.33;;;5.80;99.90;;;;;;5023746;28;20198;-45
2023/12/12 03:33:30;;;;;;;9.48;3.50;;;5.80;99.90;;;;;;5024665;28;20226;-43
2023/12/12 03:35:56;;;;;;;11.20;2.92;;;5.90;99.90;;;;;;5055732;28;20287;-37
2023/12/12 03:38:22;;;;;;;8.43;3.50;;;5.90;99.90;;;;;;5024320;28;20227;-37
2023/12/12 03:40:48;;;;;;;11.23;3.30;;;5.90;99.90;;;;;;5024558;28;20192;-38
2023/12/12 03:43:14;;;;;;;11.50;3.30;;;6.00;99.90;;;;;;5024246;28;20192;-39
2023/12/12 03:45:41;;;;;;;8.35;3.00;;;6.00;99.90;;;;;;5024414;28;20285;-35
2023/12/12 03:48:07;;;;;;;9.23;3.47;;;6.00;99.90;;;;;;5024092;28;21210;-36
2023/12/12 03:50:32;;;;;;;13.60;3.05;;;6.00;99.90;;;;;;5024147;28;20254;-36
2023/12/12 03:52:58;;;;;;;9.57;3.00;;;6.00;99.90;;;;;;5056508;28;20192;-37
2023/12/12 03:55:24;;;;;;;9.15;3.20;;;6.00;99.90;;;;;;5023569;28;20207;-40
2023/12/12 03:57:50;;;;;;;13.57;3.30;;;6.00;99.90;;;;;;5023417;28;20310;-36
2023/12/12 04:00:16;;;;;;;11.35;3.45;;;6.00;99.90;;;;;;5022926;28;20695;-35
2023/12/12 04:02:42;;;;;;;11.98;3.15;;;6.00;99.90;;;;;;5023480;28;20535;-35
2023/12/12 04:05:11;;;;;;;8.25;3.22;;;6.00;99.90;;;;;;5023911;28;20211;-39
2023/12/12 04:07:40;;;;;;;10.13;3.40;;;5.90;99.90;;;;;;5023737;28;20184;-41
2023/12/12 04:10:07;;;;;;;16.13;3.50;;;6.00;99.90;;;;;;5022277;28;20219;-39
2023/12/12 04:12:35;;;;;;;10.60;3.40;;;5.90;99.90;;;;;;5023884;28;20305;-34
2023/12/12 04:15:01;;;;;;;9.63;3.45;;;5.90;99.90;;;;;;5054897;28;20334;-42
2023/12/12 04:17:27;;;;;;;13.70;3.08;;;5.90;99.90;;;;;;5023446;28;20688;-39
2023/12/12 04:19:53;;;;;;;17.60;3.65;;;5.90;99.90;;;;;;5023380;28;20199;-38
2023/12/12 04:22:19;;;;;;;8.18;3.60;;;5.90;99.90;;;;;;5023346;28;20192;-35
2023/12/12 04:24:45;;;;;;;10.52;3.70;;;5.90;99.90;;;;;;5023616;28;20200;-37
2023/12/12 04:27:10;;;;;;;11.73;3.30;;;5.90;99.90;;;;;;5023180;28;20229;-39
2023/12/12 04:29:37;;;;;;;10.38;3.38;;;5.90;99.90;;;;;;5023587;28;20208;-39
2023/12/12 04:32:04;;;;;;;11.23;3.60;;;5.90;99.90;;;;;;5022260;28;20731;-41
2023/12/12 04:34:33;;;;;;;9.30;3.42;;;5.90;99.90;;;;;;5022594;28;20212;-38
2023/12/12 04:37:01;;;;;;;14.00;3.28;;;5.90;99.90;;;;;;5021963;28;20191;-45
2023/12/12 04:39:27;;;;;;;11.93;3.72;;;5.90;99.90;;;;;;5022859;28;20184;-39
2023/12/12 04:41:53;;;;;;;10.38;3.50;;;6.00;99.90;;;;;;5021732;28;20550;-37
2023/12/12 04:44:19;;;;;;;5.72;3.47;;;5.90;99.90;;;;;;5021738;28;20219;-41
2023/12/12 04:46:45;;;;;;;9.85;3.50;;;6.00;99.90;;;;;;5023049;28;20230;-39
2023/12/12 04:49:11;;;;;;;10.07;3.72;;;6.00;99.90;;;;;;5023759;28;20226;-39
2023/12/12 04:51:37;;;;;;;10.90;3.75;;;6.00;99.90;;;;;;5022833;28;20245;-44
2023/12/12 04:54:03;;;;;;;11.63;3.80;;;6.00;99.90;;;;;;5022805;28;20280;-38
2023/12/12 04:56:29;;;;;;;16.90;3.88;;;6.00;99.90;;;;;;5023242;28;20203;-42
2023/12/12 04:58:55;;;;;;;12.75;3.78;;;6.00;99.90;;;;;;5037353;28;20522;-38
2023/12/12 05:01:22;;;;;;;14.60;4.00;;;5.90;99.90;;;;;;5038503;28;20253;-38
2023/12/12 05:03:48;;;;;;;14.73;3.75;;;5.90;99.90;;;;;;5021309;28;20211;-36
2023/12/12 05:06:14;;;;;;;8.43;4.03;;;5.90;99.90;;;;;;5020721;28;20219;-41
2023/12/12 05:08:41;;;;;;;9.57;4.05;;;5.90;99.90;;;;;;5021027;28;20230;-36
2023/12/12 05:11:10;;;;;;;12.35;4.53;;;5.90;99.90;;;;;;5022424;28;20599;-36
2023/12/12 05:13:36;;;;;;;15.48;4.60;;;5.90;99.90;;;;;;5021085;28;20219;-37
2023/12/12 05:16:03;;;;;;;12.02;4.00;;;5.90;99.90;;;;;;5022284;28;20180;-38
2023/12/12 05:18:29;;;;;;;9.70;3.92;;;5.80;99.90;;;;;;5022361;28;20200;-40
2023/12/12 05:20:55;;;;;;;14.95;4.88;;;5.80;99.90;;;;;;5022372;28;20201;-41
2023/12/12 05:23:21;;;;;;;16.10;4.70;;;5.80;99.90;;;;;;5022260;28;20751;-39
2023/12/12 05:25:47;;;;;;;11.52;4.57;;;5.80;99.90;;;;;;5021090;28;20196;-38
2023/12/12 05:28:16;;;;;;;13.82;4.93;;;5.80;99.90;;;;;;5021534;28;20636;-40
2023/12/12 05:30:42;;;;;;;12.52;5.10;;;5.90;99.90;;;;;;5013725;28;20192;-35
2023/12/12 05:33:08;;;;;;;10.48;4.78;;;5.80;99.90;;;;;;5022065;28;20188;-41
2023/12/12 05:35:34;;;;;;;12.05;4.80;;;5.80;99.90;;;;;;5020675;28;20585;-44
2023/12/12 05:38:03;;;;;;;12.43;5.28;;;5.80;99.90;;;;;;5053477;28;20180;-39
2023/12/12 05:40:29;;;;;;;14.82;5.30;;;5.80;99.90;;;;;;5021539;28;20274;-37
2023/12/12 05:42:56;;;;;;;16.10;5.25;;;5.80;99.90;;;;;;5022887;28;20191;-41
2023/12/12 05:45:23;;;;;;;10.07;5.05;;;5.70;99.90;;;;;;5020286;28;20216;-36
2023/12/12 05:47:49;;;;;;;17.98;5.47;;;5.70;99.90;;;;;;5021909;28;20660;-38
2023/12/12 05:50:15;;;;;;;17.98;5.72;;;5.70;99.90;;;;;;5021943;28;20196;-39
2023/12/12 05:52:41;;;;;;;13.73;5.50;;;5.60;99.90;;;;;;5021590;28;20188;-39
2023/12/12 05:55:08;;;;;;;16.25;6.00;;;5.60;99.90;;;;;;5021881;28;20199;-44
2023/12/12 05:57:35;;;;;;;15.27;6.28;;;5.60;99.90;;;;;;5020918;28;20191;-39
2023/12/12 06:00:03;;;;;;;16.70;6.57;;;5.60;99.90;;;;;;5020414;28;20188;-40
2023/12/12 06:02:38;;;;;;;16.02;6.78;;;5.60;99.90;;;;;;5020409;28;20631;-39
2023/12/12 06:05:07;;;;;;;19.05;7.18;;;5.60;99.90;;;;;;5020051;28;20195;-38
2023/12/12 06:07:37;;;;;;;13.80;6.50;;;5.60;99.90;;;;;;5021072;28;20206;-38
2023/12/12 06:10:08;;;;;;;15.38;6.93;;;5.60;99.90;;;;;;5019669;28;20250;-39
2023/12/12 06:12:34;;;;;;;20.15;7.68;;;5.70;99.90;;;;;;5003023;28;20231;-37
2023/12/12 06:15:01;;;;;;;22.63;7.88;;;5.70;99.90;;;;;;5051742;28;20250;-36
2023/12/12 06:17:27;;;;;;;17.10;8.23;;;5.70;99.90;;;;;;5020122;28;20195;-38
2023/12/12 06:19:53;;;;;;;19.08;8.43;;;5.80;99.90;;;;;;5019160;28;20249;-38
2023/12/12 06:22:19;;;;;;;21.88;8.70;;;5.80;99.90;;;;;;5020559;28;20200;-42
2023/12/12 06:24:45;;;;;;;21.98;9.43;;;5.80;99.90;;;;;;5051539;28;20384;-40
2023/12/12 06:27:12;;;;;;;19.38;8.77;;;5.70;99.90;;;;;;5021898;28;20279;-38
2023/12/12 06:29:38;;;;;;;29.92;9.23;;;5.70;99.90;;;;;;5021316;28;20187;-34
2023/12/12 06:32:04;;;;;;;24.27;9.32;;;5.80;99.90;;;;;;5018853;28;20210;-39
2023/12/12 06:34:31;;;;;;;25.13;9.98;;;5.70;99.90;;;;;;5021010;28;20223;-35
2023/12/12 06:36:57;;;;;;;22.42;9.73;;;5.70;99.90;;;;;;5022362;28;20188;-40
2023/12/12 06:39:23;;;;;;;22.75;10.30;;;5.70;99.90;;;;;;5020571;28;20180;-36
2023/12/12 06:41:48;;;;;;;28.63;10.75;;;5.60;99.90;;;;;;5053249;28;20192;-38
2023/12/12 06:44:14;;;;;;;23.38;10.48;;;5.70;99.90;;;;;;5020656;28;20283;-41
2023/12/12 06:46:40;;;;;;;25.92;10.60;;;5.60;99.90;;;;;;5020987;28;20183;-38
2023/12/12 06:49:06;;;;;;;36.75;11.10;;;5.60;99.90;;;;;;5019766;28;20198;-41
2023/12/12 06:51:33;;;;;;;27.23;10.98;;;5.60;99.90;;;;;;5020372;28;20682;-39
2023/12/12 06:53:59;;;;;;;27.70;11.38;;;5.60;99.90;;;;;;5019697;28;20211;-38
2023/12/12 06:56:26;;;;;;;29.35;11.57;;;5.60;99.90;;;;;;5021673;28;20188;-38
2023/12/12 06:58:51;;;;;;;21.20;11.13;;;5.50;99.90;;;;;;5052552;28;20306;-36
2023/12/12 07:01:17;;;;;;;29.33;11.90;;;5.60;99.90;;;;;;5051278;28;20676;-39
2023/12/12 07:03:43;;;;;;;28.20;12.18;;;5.60;99.90;;;;;;5020464;28;20188;-40
2023/12/12 07:06:09;;;;;;;29.85;12.45;;;5.60;99.90;;;;;;5020105;28;20193;-41
2023/12/12 07:08:36;;;;;;;28.90;11.35;;;5.60;99.90;;;;;;5020630;28;20207;-40
2023/12/12 07:11:02;;;;;;;33.55;13.75;;;5.60;99.90;;;;;;5020561;28;20365;-37
2023/12/12 07:13:28;;;;;;;30.08;12.60;;;5.60;99.90;;;;;;5019892;28;20176;-41
2023/12/12 07:15:54;;;;;;;31.33;12.80;;;5.70;99.90;;;;;;5020267;28;20668;-36
2023/12/12 07:18:20;;;;;;;33.58;13.82;;;5.70;99.90;;;;;;5019868;28;20204;-42
2023/12/12 07:20:46;;;;;;;28.73;13.73;;;5.70;99.90;;;;;;5020124;28;20184;-38
2023/12/12 07:23:12;;;;;;;30.73;13.38;;;5.80;99.90;;;;;;5019909;28;21171;-39
2023/12/12 07:25:39;;;;;;;28.70;14.45;;;5.80;99.90;;;;;;5019227;28;20569;-38
2023/12/12 07:28:05;;;;;;;26.27;14.35;;;5.90;99.90;;;;;;5020374;28;20227;-35
2023/12/12 07:30:32;;;;;;;34.20;15.15;;;5.90;99.90;;;;;;5019932;28;20631;-38
2023/12/12 07:32:58;;;;;;;37.83;14.48;;;5.90;99.90;;;;;;5023848;28;20188;-42
2023/12/12 07:35:24;;;;;;;27.73;14.30;;;5.90;99.90;;;;;;5022787;28;20211;-38
2023/12/12 07:37:50;;;;;;;59.70;15.70;;;6.00;99.90;;;;;;5023471;28;20246;-38
2023/12/12 07:40:17;;;;;;;45.17;16.40;;;6.00;99.90;;;;;;5023334;28;20210;-38
2023/12/12 07:42:45;;;;;;;191.15;17.90;;;6.00;99.90;;;;;;5023049;28;20183;-37
2023/12/12 07:45:11;;;;;;;213.35;19.48;;;6.10;99.90;;;;;;5055153;28;20200;-39
2023/12/12 07:47:37;;;;;;;163.27;18.83;;;6.20;99.90;;;;;;5023821;28;20265;-40
2023/12/12 07:50:05;;;;;;;206.80;20.05;;;6.20;99.90;;;;;;5023460;28;20192;-36
2023/12/12 07:52:33;;;;;;;147.23;18.92;;;6.20;99.90;;;;;;5022329;28;20184;-40
2023/12/12 07:55:00;;;;;;;111.43;18.35;;;6.30;99.90;;;;;;5023730;28;20318;-37
2023/12/12 07:57:25;;;;;;;127.05;19.80;;;6.30;99.90;;;;;;5022836;28;20645;-37
2023/12/12 07:59:51;;;;;;;189.65;21.38;;;6.40;99.90;;;;;;5022843;28;20203;-38
2023/12/12 08:02:17;;;;;;;230.93;21.08;;;6.40;99.90;;;;;;5021515;28;21023;-38
2023/12/12 08:04:43;;;;;;;146.20;19.65;;;6.50;99.90;;;;;;5021968;28;20254;-38
2023/12/12 08:07:09;;;;;;;128.15;19.10;;;6.50;99.90;;;;;;5022531;28;20207;-37
2023/12/12 08:09:36;;;;;;;143.48;21.50;;;6.60;99.90;;;;;;5023858;28;20734;-37
2023/12/12 08:12:02;;;;;;;66.97;19.88;;;6.60;99.90;;;;;;5023443;28;20585;-42
2023/12/12 08:14:28;;;;;;;81.25;20.42;;;6.60;99.90;;;;;;5023369;28;20208;-37
2023/12/12 08:16:54;;;;;;;41.72;20.13;;;6.70;99.90;;;;;;5022701;28;20246;-37
2023/12/12 08:19:20;;;;;;;46.42;19.90;;;6.70;99.90;;;;;;5023777;28;20188;-37
2023/12/12 08:21:46;;;;;;;82.70;21.20;;;6.80;99.90;;;;;;5023458;28;20196;-39
2023/12/12 08:24:12;;;;;;;61.30;21.25;;;6.80;99.90;;;;;;5023006;28;20733;-44
2023/12/12 08:26:42;;;;;;;96.38;19.75;;;6.90;99.90;;;;;;5023146;28;20216;-38
2023/12/12 08:29:17;;;;;;;45.83;20.00;;;6.90;99.90;;;;;;5022660;28;20565;-38
2023/12/12 08:31:43;;;;;;;56.50;25.83;;;6.90;99.90;;;;;;5020363;28;20196;-39
2023/12/12 08:34:09;;;;;;;54.28;20.73;;;6.90;99.90;;;;;;5054820;28;20687;-36
2023/12/12 08:36:35;;;;;;;72.45;20.95;;;6.90;99.90;;;;;;5022995;28;20643;-35
2023/12/12 08:39:01;;;;;;;52.45;20.83;;;7.00;99.90;;;;;;5023562;28;20254;-37
2023/12/12 08:41:28;;;;;;;36.20;19.90;;;7.00;99.90;;;;;;5023050;28;20450;-39
2023/12/12 08:43:55;;;;;;;45.50;21.25;;;7.00;99.90;;;;;;5004298;28;20198;-42
2023/12/12 08:46:26;;;;;;;47.90;22.63;;;7.10;99.90;;;;;;5023576;28;20196;-39
2023/12/12 08:48:56;;;;;;;38.88;22.73;;;7.10;99.90;;;;;;5022243;28;20234;-38
2023/12/12 08:51:23;;;;;;;41.40;21.60;;;7.10;99.90;;;;;;5022773;28;20211;-44
2023/12/12 08:53:49;;;;;;;41.00;21.67;;;7.20;99.90;;;;;;5022542;28;20196;-40
2023/12/12 08:56:16;;;;;;;39.13;20.65;;;7.20;99.90;;;;;;5023100;28;20198;-35
2023/12/12 08:58:46;;;;;;;55.97;19.42;;;7.30;99.90;;;;;;5023090;28;20207;-40
2023/12/12 09:01:14;;;;;;;43.25;21.05;;;7.30;99.90;;;;;;5022678;28;20203;-38
2023/12/12 09:03:40;;;;;;;45.53;21.95;;;7.30;99.90;;;;;;5022369;28;20517;-37
2023/12/12 09:06:07;;;;;;;59.15;22.05;;;7.30;99.90;;;;;;5021808;28;20730;-41
2023/12/12 09:08:33;;;;;;;39.35;20.73;;;7.30;99.90;;;;;;5022345;28;20210;-42
2023/12/12 09:10:59;;;;;;;83.10;28.42;;;7.40;99.90;;;;;;5022028;28;20862;-42
2023/12/12 09:13:26;;;;;;;98.43;28.25;;;7.30;99.90;;;;;;5021677;28;20198;-36
2023/12/12 09:15:52;;;;;;;101.90;23.48;;;7.40;99.90;;;;;;5021402;28;20583;-38
2023/12/12 09:18:18;;;;;;;92.20;22.58;;;7.40;99.90;;;;;;5022420;28;20184;-40
2023/12/12 09:20:44;;;;;;;84.93;21.13;;;7.40;99.90;;;;;;5022477;28;20211;-38
2023/12/12 09:23:09;;;;;;;93.40;21.75;;;7.40;99.90;;;;;;5021961;28;20231;-36
2023/12/12 09:25:35;;;;;;;86.72;22.02;;;7.40;99.90;;;;;;5022518;28;20226;-42
2023/12/12 09:28:01;;;;;;;152.00;21.90;;;7.40;99.90;;;;;;5020948;28;20286;-41
2023/12/12 09:30:27;;;;;;;66.03;19.70;;;7.40;99.90;;;;;;5021234;28;20188;-39
2023/12/12 09:32:53;;;;;;;77.05;21.45;;;7.40;99.90;;;;;;5004493;28;20207;-39
2023/12/12 09:35:19;;;;;;;89.65;18.60;;;7.40;99.90;;;;;;5020896;28;20215;-42
2023/12/12 09:37:45;;;;;;;113.03;19.90;;;7.40;99.90;;;;;;5021735;28;20203;-38
2023/12/12 09:40:11;;;;;;;89.88;19.50;;;7.40;99.90;;;;;;5020077;28;20546;-40
2023/12/12 09:42:40;;;;;;;96.07;18.58;;;7.40;99.90;;;;;;5020372;28;21250;-38
2023/12/12 09:45:14;;;;;;;166.50;19.30;;;7.50;99.90;;;;;;5020858;28;20717;-35
2023/12/12 09:47:44;;;;;;;196.00;19.63;;;7.40;99.90;;;;;;5021898;28;20199;-39
2023/12/12 09:50:11;;;;;;;108.25;18.73;;;7.40;99.90;;;;;;5021287;28;20249;-41
2023/12/12 09:52:37;;;;;;;173.95;19.73;;;7.40;99.90;;;;;;5022228;28;20275;-39
2023/12/12 09:55:06;;;;;;;175.15;20.52;;;7.40;99.90;;;;;;5022125;28;20273;-38
2023/12/12 09:57:33;;;;;;;148.32;19.10;;;7.30;99.90;;;;;;5020648;28;20266;-38
2023/12/12 09:59:59;;;;;;;159.93;19.73;;;7.20;99.90;;;;;;5021464;28;20188;-36
2023/12/12 10:02:36;;;;;;;133.90;18.90;;;7.20;99.90;;;;;;5021946;28;20230;-41
2023/12/12 10:05:09;;;;;;;159.80;21.70;;;7.20;99.90;;;;;;5020779;28;20187;-39
2023/12/12 10:07:36;;;;;;;105.80;18.77;;;7.20;99.90;;;;;;5019591;28;20187;-35
2023/12/12 10:10:07;;;;;;;106.55;17.92;;;7.20;99.90;;;;;;5021814;28;20188;-39
2023/12/12 10:12:33;;;;;;;118.22;18.63;;;7.20;99.90;;;;;;5020124;28;20277;-41
2023/12/12 10:14:59;;;;;;;143.65;18.55;;;7.30;99.90;;;;;;5021277;28;20212;-38
2023/12/12 10:17:26;;;;;;;93.35;17.67;;;7.20;99.90;;;;;;5020074;28;20715;-39
2023/12/12 10:20:00;;;;;;;117.45;17.13;;;7.20;99.90;;;;;;5036312;28;20180;-39
2023/12/12 10:22:32;;;;;;;78.43;17.17;;;7.20;99.90;;;;;;5020194;28;20203;-39
2023/12/12 10:25:09;;;;;;;86.97;19.20;;;7.20;99.90;;;;;;5019795;28;20214;-40
2023/12/12 10:27:36;;;;;;;124.03;17.83;;;7.20;99.90;;;;;;5021014;28;20187;-40
2023/12/12 10:30:06;;;;;;;78.60;17.05;;;7.30;99.90;;;;;;5021275;28;20192;-39
2023/12/12 10:32:35;;;;;;;99.30;19.65;;;7.20;99.90;;;;;;5021457;28;20273;-41
2023/12/12 10:35:01;;;;;;;67.97;19.48;;;7.30;99.90;;;;;;5020753;28;20619;-39
2023/12/12 10:37:27;;;;;;;109.55;21.67;;;7.30;99.90;;;;;;5021443;28;20194;-38
2023/12/12 10:39:53;;;;;;;62.83;18.15;;;7.30;99.90;;;;;;5019112;28;20188;-39
2023/12/12 10:42:19;;;;;;;61.00;17.83;;;7.30;99.90;;;;;;5020339;28;20188;-41
2023/12/12 10:44:48;;;;;;;65.13;17.88;;;7.30;99.90;;;;;;5035089;28;20192;-37
2023/12/12 10:47:15;;;;;;;83.03;18.30;;;7.40;99.90;;;;;;5019883;28;20241;-43
2023/12/12 10:49:45;;;;;;;75.28;25.20;;;7.40;99.90;;;;;;5020858;28;20522;-37
2023/12/12 10:52:13;;;;;;;51.60;19.25;;;7.40;99.90;;;;;;5020771;28;20497;-38
2023/12/12 10:54:42;;;;;;;72.90;22.58;;;7.40;99.90;;;;;;5020829;28;20204;-42
2023/12/12 10:57:09;;;;;;;89.68;22.02;;;7.50;99.90;;;;;;5019368;28;20194;-36
2023/12/12 10:59:37;;;;;;;75.80;22.08;;;7.50;99.90;;;;;;5020403;28;20259;-46
2023/12/12 11:02:04;;;;;;;91.57;17.30;;;7.40;99.90;;;;;;5002373;28;20526;-42
2023/12/12 11:04:30;;;;;;;58.35;16.92;;;7.40;99.90;;;;;;5021053;28;20187;-37
2023/12/12 11:06:57;;;;;;;103.00;19.00;;;7.40;99.90;;;;;;5023452;28;20191;-41
2023/12/12 11:09:24;;;;;;;86.43;16.70;;;7.40;99.90;;;;;;5024458;28;20200;-40
2023/12/12 11:11:53;;;;;;;54.35;17.10;;;7.40;99.90;;;;;;5024759;28;21020;-39
2023/12/12 11:14:21;;;;;;;53.28;18.20;;;7.40;99.90;;;;;;5025301;28;20259;-43
2023/12/12 11:16:48;;;;;;;79.32;17.75;;;7.40;99.90;;;;;;5024409;28;20188;-40
2023/12/12 11:19:16;;;;;;;116.43;19.23;;;7.40;99.90;;;;;;5055995;28;20645;-44
2023/12/12 11:21:46;;;;;;;119.43;18.77;;;7.50;99.90;;;;;;5022985;28;20196;-42
2023/12/12 11:24:13;;;;;;;103.57;17.88;;;7.50;99.90;;;;;;5024372;28;20231;-35
2023/12/12 11:26:42;;;;;;;63.80;20.00;;;7.40;99.90;;;;;;5023065;28;21008;-36
2023/12/12 11:29:10;;;;;;;57.65;20.67;;;7.40;99.90;;;;;;5056391;28;20192;-38
2023/12/12 11:31:37;;;;;;;89.13;20.40;;;7.40;99.90;;;;;;5024012;28;20203;-38
2023/12/12 11:34:08;;;;;;;69.88;20.15;;;7.40;99.90;;;;;;5024281;28;20239;-42
2023/12/12 11:36:59;;;;;;;46.10;19.33;;;7.40;99.90;;;;;;5024385;28;20191;-40
2023/12/12 11:39:41;;;;;;;39.38;20.45;;;7.50;99.90;;;;;;5023955;28;20192;-39
2023/12/12 11:42:24;;;;;;;47.20;20.77;;;7.50;99.90;;;;;;5024168;28;20206;-39
2023/12/12 11:44:55;;;;;;;58.47;21.58;;;7.50;99.90;;;;;;5023360;28;20188;-44
2023/12/12 11:47:23;;;;;;;51.13;22.55;;;7.60;99.90;;;;;;5055980;28;20289;-42
2023/12/12 11:49:50;;;;;;;50.08;21.40;;;7.60;99.90;;;;;;5024103;28;20196;-43
2023/12/12 11:52:42;;;;;;;53.70;22.75;;;7.60;99.90;;;;;;5023248;28;20351;-39
2023/12/12 11:55:17;;;;;;;37.63;22.65;;;7.60;99.90;;;;;;5023623;28;20617;-37
2023/12/12 11:57:44;;;;;;;46.97;23.65;;;7.70;99.90;;;;;;5022041;28;20191;-40
2023/12/12 12:00:13;;;;;;;36.70;24.45;;;7.70;99.90;;;;;;5023582;28;20180;-43
2023/12/12 12:02:40;;;;;;;39.50;25.85;;;7.70;99.90;;;;;;5021802;28;20667;-39
2023/12/12 12:05:07;;;;;;;38.67;25.88;;;7.70;99.90;;;;;;5024263;28;20578;-40
2023/12/12 12:07:33;;;;;;;47.10;27.83;;;7.70;99.90;;;;;;5023231;28;20270;-35
2023/12/12 12:09:59;;;;;;;46.30;28.42;;;7.80;99.90;;;;;;5022475;28;20291;-42
2023/12/12 12:12:24;;;;;;;50.17;28.88;;;7.80;99.90;;;;;;5023730;28;20662;-43
2023/12/12 12:14:50;;;;;;;43.97;27.92;;;7.80;99.90;;;;;;5023171;28;20615;-39
2023/12/12 12:17:16;;;;;;;48.03;28.52;;;7.80;99.90;;;;;;5022177;28;20203;-42
2023/12/12 12:19:42;;;;;;;44.20;28.40;;;7.80;99.90;;;;;;5023254;28;20188;-38
2023/12/12 12:22:12;;;;;;;50.95;27.77;;;7.80;99.90;;;;;;5023257;28;20187;-39
2023/12/12 12:24:47;;;;;;;48.78;27.98;;;7.80;99.90;;;;;;5023159;28;20653;-38
2023/12/12 12:27:13;;;;;;;46.10;29.25;;;7.90;99.90;;;;;;5004491;28;20214;-46
2023/12/12 12:29:40;;;;;;;45.75;29.17;;;7.80;99.90;;;;;;5023256;28;20311;-41
2023/12/12 12:32:10;;;;;;;55.15;29.10;;;7.80;99.90;;;;;;5023266;28;20593;-39
2023/12/12 12:34:37;;;;;;;48.30;28.67;;;7.90;99.90;;;;;;5022989;28;20223;-41
2023/12/12 12:37:02;;;;;;;47.10;29.17;;;7.80;99.90;;;;;;5023111;28;20271;-36
2023/12/12 12:39:28;;;;;;;49.70;28.25;;;7.80;99.90;;;;;;5023210;28;20282;-38
2023/12/12 12:41:55;;;;;;;46.33;28.92;;;7.80;99.90;;;;;;5023340;28;20199;-41